createdAt,value
2024-01-29T00:06:55.831Z,31.42
2024-01-29T00:17:01.888Z,29.38
2024-01-29T00:27:05.189Z,24.95
2024-01-29T00:37:10.484Z,29.20
2024-01-29T00:47:13.341Z,28.15
2024-01-29T00:57:17.679Z,36.90
2024-01-29T01:07:20.603Z,32.60
2024-01-29T01:17:25.101Z,26.45
2024-01-29T01:27:28.250Z,31.25
2024-01-29T01:37:32.536Z,29.60
2024-01-29T01:47:36.359Z,29.10
2024-01-29T01:57:44.111Z,29.67
2024-01-29T02:07:46.996Z,26.40
2024-01-29T02:17:51.229Z,23.98
2024-01-29T02:27:56.071Z,40.15
2024-01-29T02:37:58.840Z,40.40
2024-01-29T02:48:03.282Z,36.78
2024-01-29T02:58:06.377Z,37.75
2024-01-29T03:08:11.298Z,35.60
2024-01-29T03:18:14.762Z,34.88
2024-01-29T03:28:19.182Z,34.35
2024-01-29T03:38:22.482Z,26.45
2024-01-29T03:48:27.827Z,37.90
2024-01-29T03:58:30.916Z,32.00
2024-01-29T04:08:36.388Z,27.55
2024-01-29T04:18:40.472Z,26.65
2024-01-29T04:28:45.044Z,32.10
2024-01-29T04:38:50.037Z,30.02
2024-01-29T04:48:56.958Z,27.75
2024-01-29T04:59:00.568Z,31.88
2024-01-29T05:09:05.108Z,27.08
2024-01-29T05:19:08.547Z,22.83
2024-01-29T05:29:12.968Z,25.33
2024-01-29T05:39:17.291Z,24.38
2024-01-29T05:49:22.929Z,27.15
2024-01-29T05:59:26.203Z,26.52
2024-01-29T06:09:30.499Z,20.33
2024-01-29T06:19:35.512Z,22.63
2024-01-29T06:29:41.027Z,17.13
2024-01-29T06:39:43.999Z,14.50
2024-01-29T06:49:48.413Z,23.17
2024-01-29T06:59:51.594Z,15.52
2024-01-29T07:09:56.628Z,22.27
2024-01-29T07:19:59.877Z,12.40
2024-01-29T07:30:05.402Z,17.73
2024-01-29T07:40:10.484Z,22.08
2024-01-29T07:50:15.815Z,20.15
2024-01-29T08:00:19.804Z,14.98
2024-01-29T08:10:24.555Z,16.02
2024-01-29T08:20:28.960Z,11.75
2024-01-29T08:30:33.577Z,12.18
2024-01-29T08:40:36.553Z,17.02
2024-01-29T08:50:41.263Z,13.50
2024-01-29T09:00:44.381Z,14.27
2024-01-29T09:10:49.215Z,11.50
2024-01-29T09:20:52.040Z,11.55
2024-01-29T09:30:56.290Z,11.82
2024-01-29T09:41:00.147Z,11.38
2024-01-29T09:51:06.542Z,6.50
2024-01-29T10:01:15.478Z,7.38
2024-01-29T10:11:21.062Z,9.52
2024-01-29T10:21:24.718Z,5.78
2024-01-29T10:31:29.765Z,10.32
2024-01-29T10:41:34.333Z,9.25
2024-01-29T10:51:42.441Z,6.38
2024-01-29T11:01:52.252Z,23.30
2024-01-29T11:12:03.941Z,9.02
2024-01-29T11:22:06.863Z,5.97
2024-01-29T11:32:15.877Z,8.45
2024-01-29T11:42:19.723Z,7.18
2024-01-29T11:52:24.404Z,8.75
2024-01-29T12:02:28.126Z,7.25
2024-01-29T12:12:34.018Z,6.18
2024-01-29T12:22:38.222Z,3.78
2024-01-29T12:32:44.633Z,7.30
2024-01-29T12:42:47.841Z,6.95
2024-01-29T12:52:52.182Z,5.18
2024-01-29T13:02:55.213Z,5.57
2024-01-29T13:13:05.119Z,6.28
2024-01-29T13:23:10.829Z,11.85
2024-01-29T13:33:15.318Z,9.23
2024-01-29T13:43:21.317Z,10.20
2024-01-29T13:53:26.011Z,6.60
2024-01-29T14:03:30.484Z,9.15
2024-01-29T14:13:35.097Z,10.15
2024-01-29T14:23:40.249Z,9.95
2024-01-29T14:33:46.485Z,11.70
2024-01-29T14:43:50.993Z,15.95
2024-01-29T14:53:55.627Z,19.48
2024-01-29T15:03:59.113Z,18.55
2024-01-29T15:14:03.788Z,10.88
2024-01-29T15:24:09.395Z,12.02
2024-01-29T15:34:13.957Z,13.45
2024-01-29T15:44:16.841Z,13.52
2024-01-29T15:54:21.097Z,10.43
2024-01-29T16:04:24.135Z,12.73
2024-01-29T16:14:28.713Z,7.88
2024-01-29T16:24:33.351Z,7.53
2024-01-29T16:34:42.940Z,14.90
2024-01-29T16:44:49.100Z,8.02
2024-01-29T16:54:53.922Z,8.88
2024-01-29T17:04:57.812Z,7.63
2024-01-29T17:15:02.412Z,7.32
2024-01-29T17:25:10.099Z,12.27
2024-01-29T17:35:30.008Z,6.60
2024-01-29T17:45:33.173Z,5.10
2024-01-29T17:55:45.955Z,6.75
2024-01-29T18:05:49.536Z,9.30
2024-01-29T18:15:54.181Z,8.63
2024-01-29T18:25:57.538Z,8.25
2024-01-29T18:36:04.274Z,12.85
2024-01-29T18:46:08.560Z,7.55
2024-01-29T18:56:14.020Z,9.35
2024-01-29T19:06:17.340Z,6.95
2024-01-29T19:16:21.870Z,4.78
2024-01-29T19:26:28.039Z,9.30
2024-01-29T19:36:33.090Z,8.75
2024-01-29T19:46:43.847Z,9.43
2024-01-29T19:56:48.383Z,8.05
2024-01-29T20:06:51.374Z,10.77
2024-01-29T20:16:55.717Z,9.32
2024-01-29T20:27:06.159Z,13.55
2024-01-29T20:37:11.062Z,7.85
2024-01-29T20:47:13.870Z,8.00
2024-01-29T20:57:18.091Z,10.30
2024-01-29T21:07:20.906Z,8.85
2024-01-29T21:17:25.387Z,8.10
2024-01-29T21:27:28.572Z,9.02
2024-01-29T21:37:32.949Z,8.23
2024-01-29T21:47:37.038Z,10.73
2024-01-29T21:57:42.149Z,7.35
2024-01-29T22:07:45.134Z,10.50
2024-01-29T22:17:49.619Z,11.25
2024-01-29T22:27:52.506Z,18.52
2024-01-29T22:37:56.813Z,13.07
2024-01-29T22:48:00.983Z,12.70
2024-01-29T22:58:06.242Z,18.55
2024-01-29T23:08:09.130Z,12.20
2024-01-29T23:18:13.489Z,15.40
2024-01-29T23:28:16.319Z,10.25
2024-01-29T23:38:20.627Z,8.38
2024-01-29T23:48:23.590Z,11.98
2024-01-29T23:58:28.129Z,12.93
